createdAt,value
2017-12-10T00:00:21.368Z,0
2017-12-10T00:01:21.354Z,0
2017-12-10T00:02:21.317Z,0
2017-12-10T00:03:21.317Z,0
2017-12-10T00:04:21.309Z,0
2017-12-10T00:05:21.277Z,0
2017-12-10T00:06:21.277Z,0
2017-12-10T00:07:21.254Z,0
2017-12-10T00:08:20.987Z,0
2017-12-10T00:09:20.975Z,0
2017-12-10T00:10:21.206Z,0
2017-12-10T00:11:21.196Z,0
2017-12-10T00:12:21.173Z,0
2017-12-10T00:13:21.168Z,0
2017-12-10T00:14:21.170Z,0
2017-12-10T00:15:21.124Z,0
2017-12-10T00:16:21.125Z,0
2017-12-10T00:17:21.135Z,0
2017-12-10T00:18:21.104Z,0
2017-12-10T00:19:20.822Z,0
2017-12-10T00:20:21.068Z,0
2017-12-10T00:21:21.064Z,0
2017-12-10T00:22:21.034Z,0
2017-12-10T00:23:21.026Z,0
2017-12-10T00:24:21.019Z,0
2017-12-10T00:25:20.998Z,0
2017-12-10T00:26:20.986Z,0
2017-12-10T00:27:20.706Z,0
2017-12-10T00:28:20.708Z,0
2017-12-10T00:29:20.940Z,0
2017-12-10T00:30:20.684Z,0
2017-12-10T00:31:20.916Z,0
2017-12-10T00:32:20.642Z,0
2017-12-10T00:33:20.897Z,0
2017-12-10T00:34:20.885Z,0
2017-12-10T00:35:20.937Z,0
2017-12-10T00:36:20.831Z,0
2017-12-10T00:37:20.826Z,0
2017-12-10T00:38:20.841Z,0
2017-12-10T00:39:20.797Z,0
2017-12-10T00:40:20.790Z,0
2017-12-10T00:41:20.773Z,0
2017-12-10T00:42:20.511Z,0
2017-12-10T00:43:20.745Z,0
2017-12-10T00:44:20.477Z,0
2017-12-10T00:45:20.719Z,0
2017-12-10T00:46:20.693Z,0
2017-12-10T00:47:20.752Z,0
2017-12-10T00:48:20.686Z,0
2017-12-10T00:49:20.662Z,0
2017-12-10T00:50:20.390Z,0
2017-12-10T00:51:20.644Z,0
2017-12-10T00:52:20.618Z,0
2017-12-10T00:53:20.598Z,0
2017-12-10T00:54:20.568Z,0
2017-12-10T00:55:20.570Z,0
2017-12-10T00:56:20.298Z,0
2017-12-10T00:57:20.564Z,0
2017-12-10T00:58:20.541Z,0
2017-12-10T00:59:20.533Z,0
2017-12-10T01:00:20.249Z,0
2017-12-10T01:01:20.507Z,0
2017-12-10T01:02:19.967Z,0
2017-12-10T01:03:20.263Z,0
2017-12-10T01:04:20.445Z,0
2017-12-10T01:05:20.426Z,0
2017-12-10T01:06:20.424Z,0
2017-12-10T01:07:20.395Z,0
2017-12-10T01:08:20.443Z,0
2017-12-10T01:09:20.376Z,0
2017-12-10T01:10:20.092Z,0
2017-12-10T01:11:20.351Z,0
2017-12-10T01:12:20.316Z,0
2017-12-10T01:13:20.309Z,0
2017-12-10T01:14:20.289Z,0
2017-12-10T01:15:20.286Z,0
2017-12-10T01:16:20.026Z,0
2017-12-10T01:17:20.270Z,0
2017-12-10T01:18:20.249Z,0
2017-12-10T01:19:20.238Z,0
2017-12-10T01:20:20.221Z,0
2017-12-10T01:21:20.252Z,0
2017-12-10T01:22:20.183Z,0
2017-12-10T01:23:19.919Z,0
2017-12-10T01:24:20.180Z,0
2017-12-10T01:25:20.135Z,0
2017-12-10T01:26:20.135Z,0
2017-12-10T01:27:20.110Z,0
2017-12-10T01:28:20.124Z,0
2017-12-10T01:29:20.096Z,0
2017-12-10T01:30:20.080Z,0
2017-12-10T01:31:20.079Z,0
2017-12-10T01:32:20.045Z,0
2017-12-10T01:33:20.028Z,0
2017-12-10T01:34:20.026Z,0
2017-12-10T01:35:20.054Z,0
2017-12-10T01:36:19.998Z,0
2017-12-10T01:37:19.990Z,0
2017-12-10T01:38:19.960Z,0
2017-12-10T01:39:19.947Z,0
2017-12-10T01:40:19.933Z,0
2017-12-10T01:41:19.919Z,0
2017-12-10T01:42:20.012Z,0
2017-12-10T01:43:19.657Z,0
2017-12-10T01:44:19.885Z,0
2017-12-10T01:45:19.847Z,0
2017-12-10T01:46:19.856Z,0
2017-12-10T01:47:19.832Z,0
2017-12-10T01:48:19.840Z,0
2017-12-10T01:49:19.803Z,0
2017-12-10T01:50:19.778Z,0
2017-12-10T01:51:19.768Z,0
2017-12-10T01:52:19.770Z,0
2017-12-10T01:53:19.742Z,0
2017-12-10T01:54:19.536Z,0
2017-12-10T01:55:19.710Z,0
2017-12-10T01:56:19.699Z,0
2017-12-10T01:57:19.424Z,0
2017-12-10T01:58:19.417Z,0
2017-12-10T01:59:19.649Z,0
2017-12-10T02:00:19.652Z,0
2017-12-10T02:01:19.633Z,0
2017-12-10T02:02:19.624Z,0
2017-12-10T02:03:19.609Z,0
2017-12-10T02:04:19.578Z,0
2017-12-10T02:05:19.629Z,0
2017-12-10T02:06:19.568Z,0
2017-12-10T02:07:19.297Z,0
2017-12-10T02:08:19.521Z,0
2017-12-10T02:09:19.524Z,0
2017-12-10T02:10:19.242Z,0
2017-12-10T02:11:19.481Z,0
2017-12-10T02:12:19.204Z,0
2017-12-10T02:13:19.456Z,0
2017-12-10T02:14:19.449Z,0
2017-12-10T02:15:19.432Z,0
2017-12-10T02:16:19.406Z,0
2017-12-10T02:17:19.408Z,0
2017-12-10T02:18:19.386Z,0
2017-12-10T02:19:19.371Z,0
2017-12-10T02:20:19.341Z,0
2017-12-10T02:21:19.333Z,0
2017-12-10T02:22:19.334Z,0
2017-12-10T02:23:19.305Z,0
2017-12-10T02:24:19.302Z,0
2017-12-10T02:25:19.290Z,0
2017-12-10T02:26:19.268Z,0
2017-12-10T02:27:19.248Z,0
2017-12-10T02:28:19.289Z,0
2017-12-10T02:29:19.215Z,0
2017-12-10T02:30:19.220Z,0
2017-12-10T02:31:19.184Z,0
2017-12-10T02:32:19.195Z,0
2017-12-10T02:33:19.185Z,0
2017-12-10T02:34:19.166Z,0
2017-12-10T02:35:19.198Z,0
2017-12-10T02:36:19.118Z,0
2017-12-10T02:37:18.856Z,0
2017-12-10T02:38:19.087Z,0
2017-12-10T02:39:19.136Z,0
2017-12-10T02:40:19.068Z,0
2017-12-10T02:41:19.065Z,0
2017-12-10T02:42:19.062Z,0
2017-12-10T02:43:18.764Z,0
2017-12-10T02:44:18.744Z,0
2017-12-10T02:45:18.990Z,0
2017-12-10T02:46:18.763Z,0
2017-12-10T02:47:18.968Z,0
2017-12-10T02:48:18.931Z,0
2017-12-10T02:49:18.935Z,0
2017-12-10T02:50:18.664Z,0
2017-12-10T02:51:18.898Z,0
2017-12-10T02:52:18.900Z,0
2017-12-10T02:53:18.863Z,0
2017-12-10T02:54:18.608Z,0
2017-12-10T02:55:18.837Z,0
2017-12-10T02:56:18.614Z,0
2017-12-10T02:57:18.881Z,0
2017-12-10T02:58:18.807Z,0
2017-12-10T02:59:18.791Z,0
2017-12-10T03:00:18.762Z,0
2017-12-10T03:01:18.741Z,0
2017-12-10T03:02:18.737Z,0
2017-12-10T03:03:18.732Z,0
2017-12-10T03:04:18.696Z,0
2017-12-10T03:05:18.688Z,0
2017-12-10T03:06:18.667Z,0
2017-12-10T03:07:18.679Z,0
2017-12-10T03:08:18.656Z,0
2017-12-10T03:09:18.632Z,0
2017-12-10T03:10:18.107Z,0
2017-12-10T03:11:18.606Z,0
2017-12-10T03:12:18.611Z,0
2017-12-10T03:13:18.324Z,0
2017-12-10T03:14:18.570Z,0
2017-12-10T03:15:18.549Z,0
2017-12-10T03:16:18.529Z,0
2017-12-10T03:17:18.512Z,0
2017-12-10T03:18:18.493Z,0
2017-12-10T03:19:18.475Z,0
2017-12-10T03:20:18.483Z,0
2017-12-10T03:21:18.461Z,0
2017-12-10T03:22:18.434Z,0
2017-12-10T03:23:18.432Z,0
2017-12-10T03:24:18.417Z,0
2017-12-10T03:25:18.164Z,0
2017-12-10T03:26:18.379Z,0
2017-12-10T03:27:18.362Z,0
2017-12-10T03:28:18.350Z,0
2017-12-10T03:29:18.371Z,0
2017-12-10T03:30:18.344Z,0
2017-12-10T03:31:18.052Z,0
2017-12-10T03:32:18.289Z,0
2017-12-10T03:33:18.300Z,0
2017-12-10T03:34:18.256Z,0
2017-12-10T03:35:18.324Z,0
2017-12-10T03:36:18.231Z,0
2017-12-10T03:37:18.232Z,0
2017-12-10T03:38:18.201Z,0
2017-12-10T03:39:18.179Z,0
2017-12-10T03:40:17.918Z,0
2017-12-10T03:41:17.888Z,0
2017-12-10T03:42:18.138Z,0
2017-12-10T03:43:17.867Z,0
2017-12-10T03:44:18.117Z,0
2017-12-10T03:45:18.090Z,0
2017-12-10T03:46:18.077Z,0
2017-12-10T03:47:18.065Z,0
2017-12-10T03:48:18.043Z,0
2017-12-10T03:49:18.042Z,0
2017-12-10T03:50:18.015Z,0
2017-12-10T03:51:18.006Z,0
2017-12-10T03:52:17.994Z,0
2017-12-10T03:53:17.730Z,0
2017-12-10T03:54:18.015Z,0
2017-12-10T03:55:17.949Z,0
2017-12-10T03:56:17.927Z,0
2017-12-10T03:57:17.930Z,0
2017-12-10T03:58:17.895Z,0
2017-12-10T03:59:17.875Z,0
2017-12-10T04:00:17.872Z,0
2017-12-10T04:01:17.595Z,0
2017-12-10T04:02:17.841Z,0
2017-12-10T04:03:17.827Z,0
2017-12-10T04:04:17.808Z,0
2017-12-10T04:05:17.808Z,0
2017-12-10T04:06:17.510Z,0
2017-12-10T04:07:17.761Z,0
2017-12-10T04:08:17.490Z,0
2017-12-10T04:09:17.736Z,0
2017-12-10T04:10:17.714Z,0
2017-12-10T04:11:17.700Z,0
2017-12-10T04:12:17.687Z,0
2017-12-10T04:13:17.684Z,0
2017-12-10T04:14:17.648Z,0
2017-12-10T04:15:17.391Z,0
2017-12-10T04:16:17.618Z,0
2017-12-10T04:17:17.600Z,0
2017-12-10T04:18:17.338Z,0
2017-12-10T04:19:17.580Z,0
2017-12-10T04:20:17.565Z,0
2017-12-10T04:21:17.552Z,0
2017-12-10T04:22:17.546Z,0
2017-12-10T04:23:17.534Z,0
2017-12-10T04:24:17.504Z,0
2017-12-10T04:25:17.265Z,0
2017-12-10T04:26:17.477Z,0
2017-12-10T04:27:17.468Z,0
2017-12-10T04:28:17.445Z,0
2017-12-10T04:29:17.420Z,0
2017-12-10T04:30:17.428Z,0
2017-12-10T04:31:17.397Z,0
2017-12-10T04:32:17.388Z,0
2017-12-10T04:33:17.367Z,0
2017-12-10T04:34:17.351Z,0
2017-12-10T04:35:17.341Z,0
2017-12-10T04:36:17.057Z,0
2017-12-10T04:37:17.297Z,0
2017-12-10T04:38:17.286Z,0
2017-12-10T04:39:17.273Z,0
2017-12-10T04:40:17.282Z,0
2017-12-10T04:41:17.238Z,0
2017-12-10T04:42:17.219Z,0
2017-12-10T04:43:17.215Z,0
2017-12-10T04:44:17.190Z,0
2017-12-10T04:45:16.935Z,0
2017-12-10T04:46:17.176Z,0
2017-12-10T04:47:17.140Z,0
2017-12-10T04:48:17.145Z,0
2017-12-10T04:49:16.861Z,0
2017-12-10T04:50:17.105Z,0
2017-12-10T04:51:17.091Z,0
2017-12-10T04:52:17.069Z,0
2017-12-10T04:53:17.043Z,0
2017-12-10T04:54:16.779Z,0
2017-12-10T04:55:17.023Z,0
2017-12-10T04:56:16.752Z,0
2017-12-10T04:57:16.993Z,0
2017-12-10T04:58:17.057Z,0
2017-12-10T04:59:16.966Z,0
2017-12-10T05:00:16.956Z,0
2017-12-10T05:01:16.931Z,0
2017-12-10T05:02:16.904Z,0
2017-12-10T05:03:16.901Z,0
2017-12-10T05:04:16.875Z,0
2017-12-10T05:05:16.870Z,0
2017-12-10T05:06:16.582Z,0
2017-12-10T05:07:16.841Z,0
2017-12-10T05:08:16.813Z,0
2017-12-10T05:09:16.804Z,0
2017-12-10T05:10:16.786Z,0
2017-12-10T05:11:16.805Z,0
2017-12-10T05:12:16.749Z,0
2017-12-10T05:13:16.762Z,0
2017-12-10T05:14:16.207Z,0
2017-12-10T05:15:16.713Z,0
2017-12-10T05:16:16.714Z,0
2017-12-10T05:17:16.670Z,0
2017-12-10T05:18:16.666Z,0
2017-12-10T05:19:16.635Z,0
2017-12-10T05:20:16.632Z,0
2017-12-10T05:21:16.610Z,0
2017-12-10T05:22:16.601Z,0
2017-12-10T05:23:16.327Z,0
2017-12-10T05:24:16.572Z,0
2017-12-10T05:25:16.304Z,0
2017-12-10T05:26:16.613Z,0
2017-12-10T05:27:16.584Z,0
2017-12-10T05:28:16.505Z,0
2017-12-10T05:29:16.493Z,0
2017-12-10T05:30:16.209Z,0
2017-12-10T05:31:16.461Z,0
2017-12-10T05:32:16.442Z,0
2017-12-10T05:33:16.427Z,0
2017-12-10T05:34:16.416Z,0
2017-12-10T05:35:16.387Z,0
2017-12-10T05:36:16.451Z,0
2017-12-10T05:37:16.385Z,0
2017-12-10T05:38:16.338Z,0
2017-12-10T05:39:16.071Z,0
2017-12-10T05:40:16.325Z,0
2017-12-10T05:41:16.312Z,0
2017-12-10T05:42:16.291Z,0
2017-12-10T05:43:16.279Z,0
2017-12-10T05:44:16.262Z,0
2017-12-10T05:45:16.244Z,0
2017-12-10T05:46:16.211Z,0
2017-12-10T05:47:16.210Z,0
2017-12-10T05:48:16.185Z,0
2017-12-10T05:49:16.174Z,0
2017-12-10T05:50:16.165Z,0
2017-12-10T05:51:16.146Z,0
2017-12-10T05:52:16.124Z,0
2017-12-10T05:53:15.859Z,0
2017-12-10T05:54:16.094Z,0
2017-12-10T05:55:16.388Z,0
2017-12-10T05:56:16.070Z,0
2017-12-10T05:57:16.049Z,0
2017-12-10T05:58:16.033Z,0
2017-12-10T05:59:16.013Z,0
2017-12-10T06:00:15.996Z,0
2017-12-10T06:01:15.976Z,0
2017-12-10T06:02:15.975Z,0
2017-12-10T06:03:15.694Z,0
2017-12-10T06:04:15.931Z,0
2017-12-10T06:05:15.913Z,0
2017-12-10T06:06:15.906Z,0
2017-12-10T06:07:15.891Z,0
2017-12-10T06:08:15.878Z,0
2017-12-10T06:09:15.602Z,0
2017-12-10T06:10:15.847Z,0
2017-12-10T06:11:15.572Z,0
2017-12-10T06:12:15.554Z,0
2017-12-10T06:13:15.803Z,0
2017-12-10T06:14:15.524Z,0
2017-12-10T06:15:15.511Z,0
2017-12-10T06:16:15.742Z,0
2017-12-10T06:17:15.494Z,0
2017-12-10T06:18:15.721Z,0
2017-12-10T06:19:15.433Z,0
2017-12-10T06:20:15.692Z,0
2017-12-10T06:21:15.671Z,0
2017-12-10T06:22:15.657Z,0
2017-12-10T06:23:15.629Z,0
2017-12-10T06:24:15.623Z,0
2017-12-10T06:25:15.613Z,4
2017-12-10T06:26:15.329Z,4
2017-12-10T06:27:15.582Z,0
2017-12-10T06:28:15.034Z,4
2017-12-10T06:29:15.299Z,4
2017-12-10T06:30:15.934Z,4
2017-12-10T06:31:15.519Z,4
2017-12-10T06:32:15.502Z,4
2017-12-10T06:33:15.481Z,4
2017-12-10T06:34:15.215Z,8
2017-12-10T06:35:15.522Z,12
2017-12-10T06:36:15.441Z,8
2017-12-10T06:37:15.470Z,12
2017-12-10T06:38:15.158Z,12
2017-12-10T06:39:15.379Z,16
2017-12-10T06:40:15.380Z,20
2017-12-10T06:41:15.341Z,20
2017-12-10T06:42:15.331Z,24
2017-12-10T06:43:15.392Z,28
2017-12-10T06:44:15.290Z,28
2017-12-10T06:45:15.275Z,32
2017-12-10T06:46:15.278Z,36
2017-12-10T06:47:15.257Z,40
2017-12-10T06:48:14.973Z,48
2017-12-10T06:49:15.224Z,56
2017-12-10T06:50:15.228Z,60
2017-12-10T06:51:15.274Z,72
2017-12-10T06:52:15.172Z,80
2017-12-10T06:53:15.159Z,96
2017-12-10T06:54:15.133Z,104
2017-12-10T06:55:14.862Z,120
2017-12-10T06:56:14.932Z,132
2017-12-10T06:57:15.104Z,144
2017-12-10T06:58:15.065Z,164
2017-12-10T06:59:15.056Z,176
2017-12-10T07:00:15.044Z,192
2017-12-10T07:01:15.021Z,208
2017-12-10T07:02:14.757Z,228
2017-12-10T07:03:14.999Z,244
2017-12-10T07:04:14.738Z,260
2017-12-10T07:05:14.978Z,280
2017-12-10T07:06:14.952Z,300
2017-12-10T07:07:14.678Z,320
2017-12-10T07:08:14.948Z,344
2017-12-10T07:09:14.912Z,364
2017-12-10T07:10:14.887Z,396
2017-12-10T07:11:14.622Z,428
2017-12-10T07:12:14.859Z,460
2017-12-10T07:13:14.838Z,488
2017-12-10T07:14:14.833Z,516
2017-12-10T07:15:14.799Z,556
2017-12-10T07:16:14.787Z,584
2017-12-10T07:17:14.761Z,620
2017-12-10T07:18:14.510Z,664
2017-12-10T07:19:14.758Z,728
2017-12-10T07:20:14.729Z,792
2017-12-10T07:21:14.461Z,856
2017-12-10T07:22:14.678Z,912
2017-12-10T07:23:14.679Z,968
2017-12-10T07:24:14.681Z,1020
2017-12-10T07:25:14.396Z,1064
2017-12-10T07:26:14.618Z,1108
2017-12-10T07:27:14.624Z,1148
2017-12-10T07:28:14.606Z,1200
2017-12-10T07:29:14.597Z,1252
2017-12-10T07:30:14.578Z,1316
2017-12-10T07:31:14.561Z,1372
2017-12-10T07:32:14.556Z,1432
2017-12-10T07:33:14.282Z,1452
2017-12-10T07:34:14.510Z,1452
2017-12-10T07:35:14.244Z,1476
2017-12-10T07:36:14.488Z,1500
2017-12-10T07:37:14.466Z,1520
2017-12-10T07:38:14.442Z,1540
2017-12-10T07:39:14.436Z,1568
2017-12-10T07:40:14.416Z,1600
2017-12-10T07:41:14.403Z,1640
2017-12-10T07:42:14.464Z,1676
2017-12-10T07:43:14.364Z,1708
2017-12-10T07:44:14.355Z,1720
2017-12-10T07:45:13.837Z,1716
2017-12-10T07:46:14.071Z,1740
2017-12-10T07:47:14.317Z,1776
2017-12-10T07:48:14.300Z,1824
2017-12-10T07:49:14.271Z,1912
2017-12-10T07:50:13.793Z,2008
2017-12-10T07:51:14.248Z,2076
2017-12-10T07:52:14.226Z,2116
2017-12-10T07:53:13.964Z,2220
2017-12-10T07:54:13.940Z,2380
2017-12-10T07:55:14.186Z,2528
2017-12-10T07:56:13.925Z,2656
2017-12-10T07:57:13.888Z,2784
2017-12-10T07:58:14.139Z,2888
2017-12-10T07:59:13.864Z,2936
2017-12-10T08:00:13.855Z,2936
2017-12-10T08:01:13.836Z,2980
2017-12-10T08:02:13.827Z,3064
2017-12-10T08:03:14.065Z,3144
2017-12-10T08:04:13.791Z,3172
2017-12-10T08:05:14.019Z,3128
2017-12-10T08:06:14.008Z,3072
2017-12-10T08:07:13.743Z,3120
2017-12-10T08:08:13.979Z,3136
2017-12-10T08:09:13.949Z,3192
2017-12-10T08:10:13.680Z,3276
2017-12-10T08:11:13.673Z,3336
2017-12-10T08:12:13.930Z,3304
2017-12-10T08:13:13.905Z,3264
2017-12-10T08:14:13.629Z,3252
2017-12-10T08:15:13.616Z,3256
2017-12-10T08:16:13.607Z,3268
2017-12-10T08:17:13.596Z,3332
2017-12-10T08:18:13.833Z,3500
2017-12-10T08:19:13.808Z,3672
2017-12-10T08:20:13.789Z,3744
2017-12-10T08:21:13.516Z,3744
2017-12-10T08:22:13.512Z,3636
2017-12-10T08:23:13.544Z,3580
2017-12-10T08:24:13.487Z,3684
2017-12-10T08:25:13.728Z,3880
2017-12-10T08:26:13.692Z,3984
2017-12-10T08:27:13.717Z,4060
2017-12-10T08:28:13.413Z,4164
2017-12-10T08:29:13.661Z,4268
2017-12-10T08:30:13.644Z,4256
2017-12-10T08:31:13.631Z,4264
2017-12-10T08:32:13.422Z,4252
2017-12-10T08:33:13.607Z,4264
2017-12-10T08:34:13.612Z,4328
2017-12-10T08:35:13.570Z,4372
2017-12-10T08:36:13.300Z,4320
2017-12-10T08:37:13.553Z,4272
2017-12-10T08:38:13.535Z,4220
2017-12-10T08:39:13.529Z,4188
2017-12-10T08:40:13.494Z,4164
2017-12-10T08:41:13.221Z,4148
2017-12-10T08:42:13.479Z,4188
2017-12-10T08:43:13.460Z,4272
2017-12-10T08:44:13.448Z,4320
2017-12-10T08:45:13.409Z,4216
2017-12-10T08:46:13.157Z,4144
2017-12-10T08:47:13.412Z,4084
2017-12-10T08:48:13.391Z,3992
2017-12-10T08:49:13.360Z,3860
2017-12-10T08:50:13.099Z,3828
2017-12-10T08:51:13.070Z,4032
2017-12-10T08:52:13.079Z,4320
2017-12-10T08:53:13.306Z,4532
2017-12-10T08:54:13.034Z,4648
2017-12-10T08:55:13.278Z,4680
2017-12-10T08:56:13.260Z,4668
2017-12-10T08:57:13.001Z,4624
2017-12-10T08:58:13.234Z,4564
2017-12-10T08:59:13.224Z,4460
2017-12-10T09:00:13.208Z,4348
2017-12-10T09:01:13.242Z,4216
2017-12-10T09:02:13.182Z,4056
2017-12-10T09:03:13.185Z,3988
2017-12-10T09:04:13.147Z,3884
2017-12-10T09:05:13.156Z,3684
2017-12-10T09:06:13.141Z,3532
2017-12-10T09:07:13.111Z,3492
2017-12-10T09:08:12.831Z,3456
2017-12-10T09:09:13.075Z,3420
2017-12-10T09:10:12.811Z,3396
2017-12-10T09:11:13.050Z,3380
2017-12-10T09:12:12.778Z,3372
2017-12-10T09:13:12.792Z,3368
2017-12-10T09:14:13.010Z,3356
2017-12-10T09:15:12.725Z,3372
2017-12-10T09:16:12.975Z,3412
2017-12-10T09:17:13.008Z,3428
2017-12-10T09:18:12.954Z,3416
2017-12-10T09:19:12.956Z,3408
2017-12-10T09:20:12.658Z,3416
2017-12-10T09:21:12.906Z,3412
2017-12-10T09:22:12.897Z,3400
2017-12-10T09:23:12.877Z,3396
2017-12-10T09:24:12.604Z,3388
2017-12-10T09:25:12.844Z,3396
2017-12-10T09:26:12.582Z,3396
2017-12-10T09:27:12.825Z,3408
2017-12-10T09:28:12.537Z,3412
2017-12-10T09:29:12.773Z,3412
2017-12-10T09:30:12.825Z,3408
2017-12-10T09:31:12.855Z,3416
2017-12-10T09:32:12.495Z,3408
2017-12-10T09:33:12.466Z,3408
2017-12-10T09:34:12.469Z,3440
2017-12-10T09:35:12.701Z,3432
2017-12-10T09:36:12.682Z,3392
2017-12-10T09:37:12.687Z,3344
2017-12-10T09:38:12.407Z,3304
2017-12-10T09:39:12.381Z,3260
2017-12-10T09:40:12.625Z,3224
2017-12-10T09:41:12.649Z,3184
2017-12-10T09:42:12.589Z,3164
2017-12-10T09:43:12.586Z,3144
2017-12-10T09:44:12.570Z,3104
2017-12-10T09:45:12.305Z,3236
2017-12-10T09:46:12.599Z,3412
2017-12-10T09:47:12.528Z,3564
2017-12-10T09:48:12.245Z,3636
2017-12-10T09:49:12.493Z,3740
2017-12-10T09:50:12.482Z,3776
2017-12-10T09:51:12.469Z,3764
2017-12-10T09:52:12.454Z,3772
2017-12-10T09:53:12.442Z,3788
2017-12-10T09:54:12.422Z,3816
2017-12-10T09:55:12.400Z,3828
2017-12-10T09:56:12.388Z,3824
2017-12-10T09:57:12.381Z,3812
2017-12-10T09:58:12.350Z,3804
2017-12-10T09:59:12.343Z,3784
2017-12-10T10:00:12.354Z,3760
2017-12-10T10:01:12.331Z,3716
2017-12-10T10:02:12.036Z,3696
2017-12-10T10:03:12.294Z,3680
2017-12-10T10:04:12.278Z,3664
2017-12-10T10:05:12.252Z,3624
2017-12-10T10:06:12.242Z,3548
2017-12-10T10:07:12.232Z,3488
2017-12-10T10:08:12.246Z,3480
2017-12-10T10:09:12.219Z,3464
2017-12-10T10:10:12.173Z,3796
2017-12-10T10:11:12.153Z,4132
2017-12-10T10:12:12.171Z,3944
2017-12-10T10:13:12.133Z,4212
2017-12-10T10:14:12.123Z,4368
2017-12-10T10:15:12.120Z,4372
2017-12-10T10:16:12.110Z,4388
2017-12-10T10:17:12.071Z,4324
2017-12-10T10:18:12.074Z,4248
2017-12-10T10:19:12.031Z,4108
2017-12-10T10:20:12.048Z,3796
2017-12-10T10:21:12.013Z,3820
2017-12-10T10:22:11.495Z,3940
2017-12-10T10:23:12.010Z,4288
2017-12-10T10:24:11.708Z,4176
2017-12-10T10:25:11.447Z,4264
2017-12-10T10:26:11.975Z,4444
2017-12-10T10:27:11.668Z,5484
2017-12-10T10:28:11.667Z,6320
2017-12-10T10:29:11.642Z,6964
2017-12-10T10:30:11.891Z,6748
2017-12-10T10:31:11.886Z,6708
2017-12-10T10:32:11.337Z,7156
2017-12-10T10:33:11.831Z,7348
2017-12-10T10:34:11.811Z,6836
2017-12-10T10:35:11.561Z,5668
2017-12-10T10:36:11.546Z,5236
2017-12-10T10:37:11.521Z,5156
2017-12-10T10:38:11.772Z,5256
2017-12-10T10:39:11.758Z,5336
2017-12-10T10:40:11.997Z,5428
2017-12-10T10:41:11.797Z,5572
2017-12-10T10:42:11.696Z,5780
2017-12-10T10:43:11.718Z,6012
2017-12-10T10:44:11.712Z,6116
2017-12-10T10:45:11.413Z,6072
2017-12-10T10:46:11.405Z,5988
2017-12-10T10:47:11.638Z,5832
2017-12-10T10:48:11.371Z,5712
2017-12-10T10:49:11.356Z,5460
2017-12-10T10:50:11.339Z,5236
2017-12-10T10:51:11.568Z,4996
2017-12-10T10:52:11.306Z,4852
2017-12-10T10:53:11.545Z,4756
2017-12-10T10:54:11.532Z,4700
2017-12-10T10:55:11.519Z,4684
2017-12-10T10:56:11.517Z,4680
2017-12-10T10:57:11.488Z,4668
2017-12-10T10:58:11.481Z,4788
2017-12-10T10:59:11.212Z,4912
2017-12-10T11:00:11.451Z,5100
2017-12-10T11:01:11.199Z,5124
2017-12-10T11:02:11.164Z,5068
2017-12-10T11:03:11.152Z,4992
2017-12-10T11:04:11.381Z,4840
2017-12-10T11:05:11.369Z,4784
2017-12-10T11:06:11.403Z,4760
2017-12-10T11:07:11.369Z,4696
2017-12-10T11:08:11.325Z,4660
2017-12-10T11:09:11.319Z,4528
2017-12-10T11:10:11.102Z,4440
2017-12-10T11:11:11.287Z,4376
2017-12-10T11:12:11.281Z,4340
2017-12-10T11:13:11.274Z,4320
2017-12-10T11:14:11.249Z,4228
2017-12-10T11:15:11.325Z,4200
2017-12-10T11:16:11.239Z,4164
2017-12-10T11:17:11.215Z,4152
2017-12-10T11:18:10.933Z,4120
2017-12-10T11:19:10.925Z,4004
2017-12-10T11:20:11.164Z,3832
2017-12-10T11:21:11.153Z,3744
2017-12-10T11:22:10.893Z,3852
2017-12-10T11:23:11.129Z,3956
2017-12-10T11:24:11.180Z,4108
2017-12-10T11:25:10.832Z,4216
2017-12-10T11:26:10.574Z,4428
2017-12-10T11:27:11.069Z,4568
2017-12-10T11:28:11.090Z,4628
2017-12-10T11:29:11.060Z,4892
2017-12-10T11:30:10.786Z,5296
2017-12-10T11:31:11.008Z,4700
2017-12-10T11:32:11.032Z,4404
2017-12-10T11:33:10.703Z,4256
2017-12-10T11:34:10.971Z,4276
2017-12-10T11:35:10.944Z,4708
2017-12-10T11:36:10.945Z,4800
2017-12-10T11:37:10.908Z,4724
2017-12-10T11:38:10.952Z,4596
2017-12-10T11:39:10.887Z,4496
2017-12-10T11:40:10.616Z,4208
2017-12-10T11:41:10.856Z,3928
2017-12-10T11:42:10.850Z,3796
2017-12-10T11:43:10.853Z,3744
2017-12-10T11:44:10.613Z,3764
2017-12-10T11:45:10.892Z,3852
2017-12-10T11:46:10.805Z,3836
2017-12-10T11:47:10.779Z,3652
2017-12-10T11:48:10.770Z,3448
2017-12-10T11:49:10.765Z,3240
2017-12-10T11:50:10.493Z,3080
2017-12-10T11:51:10.739Z,2952
2017-12-10T11:52:10.448Z,2876
2017-12-10T11:53:10.679Z,2844
2017-12-10T11:54:10.694Z,2892
2017-12-10T11:55:10.673Z,3036
2017-12-10T11:56:10.639Z,3320
2017-12-10T11:57:10.620Z,3728
2017-12-10T11:58:10.677Z,4224
2017-12-10T11:59:10.352Z,4692
2017-12-10T12:00:10.331Z,5056
2017-12-10T12:01:10.331Z,5284
2017-12-10T12:02:10.556Z,5412
2017-12-10T12:03:10.550Z,5460
2017-12-10T12:04:10.274Z,5576
2017-12-10T12:05:10.255Z,5660
2017-12-10T12:06:10.492Z,5600
2017-12-10T12:07:10.482Z,5416
2017-12-10T12:08:10.487Z,5200
2017-12-10T12:09:10.463Z,5012
2017-12-10T12:10:10.442Z,4988
2017-12-10T12:11:10.415Z,5108
2017-12-10T12:12:10.416Z,5268
2017-12-10T12:13:10.160Z,5332
2017-12-10T12:14:10.423Z,5376
2017-12-10T12:15:10.369Z,5400
2017-12-10T12:16:10.358Z,5420
2017-12-10T12:17:10.359Z,5452
2017-12-10T12:18:10.334Z,5520
2017-12-10T12:19:10.301Z,5616
2017-12-10T12:20:10.059Z,5736
2017-12-10T12:21:10.286Z,5872
2017-12-10T12:22:10.273Z,6108
2017-12-10T12:23:09.990Z,6324
2017-12-10T12:24:10.286Z,6460
2017-12-10T12:25:09.994Z,6448
2017-12-10T12:26:10.233Z,6276
2017-12-10T12:27:10.220Z,6008
2017-12-10T12:28:09.929Z,5632
2017-12-10T12:29:10.189Z,5248
2017-12-10T12:30:10.164Z,4916
2017-12-10T12:31:10.126Z,4692
2017-12-10T12:32:09.870Z,4536
2017-12-10T12:33:10.117Z,4424
2017-12-10T12:34:10.118Z,4328
2017-12-10T12:35:09.850Z,4224
2017-12-10T12:36:09.808Z,4144
2017-12-10T12:37:10.040Z,4076
2017-12-10T12:38:10.027Z,4036
2017-12-10T12:39:10.020Z,4044
2017-12-10T12:40:09.763Z,4076
2017-12-10T12:41:10.003Z,4112
2017-12-10T12:42:09.720Z,4140
2017-12-10T12:43:10.047Z,4108
2017-12-10T12:44:10.028Z,4044
2017-12-10T12:45:09.944Z,3972
2017-12-10T12:46:09.665Z,3908
2017-12-10T12:47:09.408Z,3840
2017-12-10T12:48:09.888Z,3772
2017-12-10T12:49:09.884Z,3700
2017-12-10T12:50:09.907Z,3612
2017-12-10T12:51:09.600Z,3540
2017-12-10T12:52:09.629Z,3468
2017-12-10T12:53:09.830Z,3424
2017-12-10T12:54:09.558Z,3404
2017-12-10T12:55:09.803Z,3408
2017-12-10T12:56:09.774Z,3436
2017-12-10T12:57:09.770Z,3484
2017-12-10T12:58:09.752Z,3532
2017-12-10T12:59:09.746Z,3584
2017-12-10T13:00:09.466Z,3640
2017-12-10T13:01:09.716Z,3700
2017-12-10T13:02:09.716Z,3764
2017-12-10T13:03:09.723Z,3824
2017-12-10T13:04:09.663Z,3872
2017-12-10T13:05:09.727Z,3876
2017-12-10T13:06:09.394Z,3844
2017-12-10T13:07:09.689Z,3776
2017-12-10T13:08:09.604Z,3688
2017-12-10T13:09:09.603Z,3604
2017-12-10T13:10:09.581Z,3528
2017-12-10T13:11:09.328Z,3444
2017-12-10T13:12:09.574Z,3372
2017-12-10T13:13:09.529Z,3304
2017-12-10T13:14:09.528Z,3248
2017-12-10T13:15:09.260Z,3204
2017-12-10T13:16:09.243Z,3172
2017-12-10T13:17:09.490Z,3140
2017-12-10T13:18:09.456Z,3100
2017-12-10T13:19:09.438Z,3052
2017-12-10T13:20:09.437Z,3012
2017-12-10T13:21:09.420Z,2988
2017-12-10T13:22:09.173Z,2968
2017-12-10T13:23:09.448Z,2932
2017-12-10T13:24:09.392Z,2896
2017-12-10T13:25:09.355Z,2840
2017-12-10T13:26:09.087Z,2764
2017-12-10T13:27:09.322Z,2672
2017-12-10T13:28:09.385Z,2580
2017-12-10T13:29:09.311Z,2508
2017-12-10T13:30:09.283Z,2460
2017-12-10T13:31:09.299Z,2408
2017-12-10T13:32:09.271Z,2356
2017-12-10T13:33:09.288Z,2300
2017-12-10T13:34:09.227Z,2244
2017-12-10T13:35:08.961Z,2168
2017-12-10T13:36:09.204Z,2084
2017-12-10T13:37:09.200Z,2012
2017-12-10T13:38:09.190Z,1980
2017-12-10T13:39:08.910Z,1960
2017-12-10T13:40:09.141Z,1944
2017-12-10T13:41:09.137Z,1912
2017-12-10T13:42:09.126Z,1888
2017-12-10T13:43:09.107Z,1868
2017-12-10T13:44:09.098Z,1852
2017-12-10T13:45:09.070Z,1836
2017-12-10T13:46:09.068Z,1792
2017-12-10T13:47:09.051Z,1720
2017-12-10T13:48:09.027Z,1612
2017-12-10T13:49:09.023Z,1508
2017-12-10T13:50:08.995Z,1416
2017-12-10T13:51:08.980Z,1360
2017-12-10T13:52:08.710Z,1336
2017-12-10T13:53:08.952Z,1336
2017-12-10T13:54:08.962Z,1340
2017-12-10T13:55:08.921Z,1336
2017-12-10T13:56:08.912Z,1332
2017-12-10T13:57:08.874Z,1324
2017-12-10T13:58:08.913Z,1308
2017-12-10T13:59:08.854Z,1288
2017-12-10T14:00:08.842Z,1256